Time;durP1;ratioP1;P1;durP2;ratioP2;P2;SDS_P1;SDS_P2;PMS_P1;PMS_P2;Temp;Humidity;BMP_temperature;BMP_pressure;BME280_temperature;BME280_humidity;BME280_pressure;Samples;Min_cycle;Max_cycle;Signal;HPM_P1;HPM_P2
2021/03/29 00:02:25;;;;;;;22.23;7.10;;;;;;;;;;4979032;28;20133;-82
2021/03/29 00:04:51;;;;;;;20.98;7.35;;;;;;;;;;4978675;28;20038;-84
2021/03/29 00:07:18;;;;;;;14.55;6.07;;;;;;;;;;4978179;28;20028;-83
2021/03/29 00:09:45;;;;;;;26.33;9.02;;;;;;;;;;4978659;28;20065;-85
2021/03/29 00:12:18;;;;;;;25.73;7.40;;;;;;;;;;4978728;28;20031;-90
2021/03/29 00:14:45;;;;;;;28.67;7.70;;;;;;;;;;4978604;28;20468;-82
2021/03/29 00:17:16;;;;;;;25.35;7.97;;;;;;;;;;4979056;28;20030;-82
2021/03/29 00:19:43;;;;;;;21.80;7.15;;;;;;;;;;4978044;28;20122;-83
2021/03/29 00:22:10;;;;;;;19.33;7.35;;;;;;;;;;4978251;28;20034;-82
2021/03/29 00:24:39;;;;;;;20.77;6.97;;;;;;;;;;4995461;28;20038;-83
2021/03/29 00:27:06;;;;;;;25.80;7.88;;;;;;;;;;4978104;28;20026;-91
2021/03/29 00:29:32;;;;;;;26.33;7.75;;;;;;;;;;4978064;28;20022;-83
2021/03/29 00:31:59;;;;;;;17.85;6.82;;;;;;;;;;4977969;28;20501;-84
2021/03/29 00:34:34;;;;;;;17.90;6.38;;;;;;;;;;4977855;28;20029;-87
2021/03/29 00:37:01;;;;;;;16.00;6.55;;;;;;;;;;5000265;28;20510;-82
2021/03/29 00:39:31;;;;;;;24.55;7.60;;;;;;;;;;4989441;28;20041;-84
2021/03/29 00:41:58;;;;;;;22.98;7.15;;;;;;;;;;4982029;28;20129;-84
2021/03/29 00:44:24;;;;;;;20.35;6.22;;;;;;;;;;4999286;28;20044;-83
2021/03/29 00:46:51;;;;;;;21.23;6.60;;;;;;;;;;4980385;28;20526;-83
2021/03/29 00:49:18;;;;;;;18.75;6.55;;;;;;;;;;4977501;28;20058;-83
2021/03/29 00:51:45;;;;;;;22.25;7.55;;;;;;;;;;4977497;28;20034;-83
2021/03/29 00:54:11;;;;;;;23.52;8.02;;;;;;;;;;4977130;28;20042;-89
2021/03/29 00:56:38;;;;;;;24.80;7.22;;;;;;;;;;4978067;28;20034;-83
2021/03/29 00:59:05;;;;;;;27.83;8.93;;;;;;;;;;4977407;28;20022;-85
2021/03/29 01:01:44;;;;;;;21.55;8.07;;;;;;;;;;4977252;28;20046;-94
2021/03/29 01:04:12;;;;;;;22.00;7.40;;;;;;;;;;4977514;28;20035;-83
2021/03/29 01:06:46;;;;;;;25.90;8.93;;;;;;;;;;4977520;28;20030;-83
2021/03/29 01:09:23;;;;;;;23.17;9.35;;;;;;;;;;4978214;28;20030;-83
2021/03/29 01:11:53;;;;;;;27.73;9.13;;;;;;;;;;4978354;28;20414;-82
2021/03/29 01:14:23;;;;;;;34.22;11.85;;;;;;;;;;4977395;28;20034;-83
2021/03/29 01:17:07;;;;;;;27.50;10.55;;;;;;;;;;4977148;28;20037;-81
2021/03/29 01:19:49;;;;;;;25.35;9.38;;;;;;;;;;4977510;28;20121;-88
2021/03/29 01:22:19;;;;;;;23.38;8.93;;;;;;;;;;4977707;28;20034;-82
2021/03/29 01:24:52;;;;;;;24.60;8.63;;;;;;;;;;4977435;28;20109;-87
2021/03/29 01:27:20;;;;;;;18.02;6.80;;;;;;;;;;4977569;28;20472;-83
2021/03/29 01:29:47;;;;;;;19.05;6.35;;;;;;;;;;4978271;28;20033;-83
2021/03/29 01:32:16;;;;;;;14.45;5.25;;;;;;;;;;4978586;28;20026;-83
2021/03/29 01:34:43;;;;;;;11.30;4.85;;;;;;;;;;4977864;28;20030;-82
2021/03/29 01:37:12;;;;;;;11.32;4.22;;;;;;;;;;4977561;28;20053;-81
2021/03/29 01:39:43;;;;;;;9.55;4.07;;;;;;;;;;4977263;28;20027;-93
2021/03/29 01:42:11;;;;;;;11.57;4.32;;;;;;;;;;4976891;28;20034;-84
2021/03/29 01:44:37;;;;;;;12.55;4.43;;;;;;;;;;4977446;28;20054;-84
2021/03/29 01:47:06;;;;;;;10.18;3.58;;;;;;;;;;4997901;28;20027;-84
2021/03/29 01:49:33;;;;;;;8.18;3.35;;;;;;;;;;4981022;28;20038;-94
2021/03/29 01:52:00;;;;;;;9.85;3.85;;;;;;;;;;4980779;28;20069;-89
2021/03/29 01:54:27;;;;;;;9.85;3.92;;;;;;;;;;4997935;28;20050;-82
2021/03/29 01:56:53;;;;;;;12.50;3.92;;;;;;;;;;4981288;28;20364;-82
2021/03/29 01:59:19;;;;;;;7.68;3.47;;;;;;;;;;4980805;28;20451;-82
2021/03/29 02:01:46;;;;;;;9.27;3.83;;;;;;;;;;4980913;28;20034;-81
2021/03/29 02:04:12;;;;;;;10.20;3.95;;;;;;;;;;4980531;28;20026;-82
2021/03/29 02:06:39;;;;;;;10.10;4.18;;;;;;;;;;4998389;28;20029;-83
2021/03/29 02:09:06;;;;;;;9.05;3.80;;;;;;;;;;4980421;28;20512;-83
2021/03/29 02:11:36;;;;;;;11.43;3.85;;;;;;;;;;4980384;28;20023;-93
2021/03/29 02:14:03;;;;;;;12.57;4.28;;;;;;;;;;4980752;28;20438;-81
2021/03/29 02:16:30;;;;;;;9.50;3.65;;;;;;;;;;4981623;28;20034;-82
2021/03/29 02:18:57;;;;;;;12.45;3.70;;;;;;;;;;4997995;28;20034;-85
2021/03/29 02:21:24;;;;;;;14.35;4.07;;;;;;;;;;4980461;28;20483;-81
2021/03/29 02:23:54;;;;;;;11.35;4.07;;;;;;;;;;4980277;28;20069;-82
2021/03/29 02:26:21;;;;;;;11.90;4.35;;;;;;;;;;4980345;28;20038;-84
2021/03/29 02:28:51;;;;;;;15.50;4.45;;;;;;;;;;4980382;28;20121;-82
2021/03/29 02:31:17;;;;;;;12.98;4.63;;;;;;;;;;4980158;28;20027;-86
2021/03/29 02:33:45;;;;;;;14.15;4.25;;;;;;;;;;4997964;28;20026;-84
2021/03/29 02:36:11;;;;;;;10.82;4.80;;;;;;;;;;4997531;28;20066;-83
2021/03/29 02:38:40;;;;;;;11.25;4.75;;;;;;;;;;4980017;28;20030;-89
2021/03/29 02:41:07;;;;;;;16.40;4.72;;;;;;;;;;4980066;28;20455;-84
2021/03/29 02:43:33;;;;;;;11.35;5.07;;;;;;;;;;4997626;28;20359;-81
2021/03/29 02:46:04;;;;;;;11.75;4.40;;;;;;;;;;4981073;28;20523;-85
2021/03/29 02:48:38;;;;;;;14.90;5.13;;;;;;;;;;4979953;28;20033;-85
2021/03/29 02:51:09;;;;;;;12.50;4.82;;;;;;;;;;4979830;28;20034;-81
2021/03/29 02:53:41;;;;;;;9.55;4.25;;;;;;;;;;4979761;28;20113;-82
2021/03/29 02:56:15;;;;;;;13.00;4.70;;;;;;;;;;4980066;28;20169;-84
2021/03/29 02:58:42;;;;;;;8.18;4.07;;;;;;;;;;4979939;28;20471;-86
2021/03/29 03:01:10;;;;;;;10.65;4.25;;;;;;;;;;4998160;28;20542;-85
2021/03/29 03:03:40;;;;;;;9.40;4.72;;;;;;;;;;4980606;28;20030;-94
2021/03/29 03:06:07;;;;;;;10.02;4.00;;;;;;;;;;4981289;28;20084;-91
2021/03/29 03:08:48;;;;;;;10.93;4.88;;;;;;;;;;4980459;28;20046;-84
2021/03/29 03:11:15;;;;;;;10.93;4.20;;;;;;;;;;4980445;28;20041;-84
2021/03/29 03:14:01;;;;;;;11.27;5.22;;;;;;;;;;4979899;28;20030;-87
2021/03/29 03:16:28;;;;;;;19.73;6.28;;;;;;;;;;4979819;28;20053;-86
2021/03/29 03:18:55;;;;;;;16.00;6.53;;;;;;;;;;4979591;28;20030;-89
2021/03/29 03:21:24;;;;;;;17.88;6.00;;;;;;;;;;4980816;28;20041;-86
2021/03/29 03:23:51;;;;;;;16.20;5.45;;;;;;;;;;4979674;28;20029;-88
2021/03/29 03:26:19;;;;;;;13.27;4.70;;;;;;;;;;4978231;28;20133;-86
2021/03/29 03:28:46;;;;;;;7.80;4.32;;;;;;;;;;4979826;28;20026;-83
2021/03/29 03:31:15;;;;;;;16.13;5.65;;;;;;;;;;4997312;28;20089;-86
2021/03/29 03:33:41;;;;;;;9.43;4.20;;;;;;;;;;4979565;28;20036;-84
2021/03/29 03:36:12;;;;;;;11.75;3.75;;;;;;;;;;4996594;28;20037;-85
2021/03/29 03:38:52;;;;;;;8.70;3.30;;;;;;;;;;4979524;28;20026;-87
2021/03/29 03:41:21;;;;;;;11.73;4.10;;;;;;;;;;4979515;28;20038;-85
2021/03/29 03:43:55;;;;;;;13.82;4.00;;;;;;;;;;4979071;28;20028;-95
2021/03/29 03:46:23;;;;;;;11.80;5.18;;;;;;;;;;4979037;28;20088;-85
2021/03/29 03:48:49;;;;;;;14.00;5.13;;;;;;;;;;4978947;28;20039;-82
2021/03/29 03:51:16;;;;;;;22.85;8.07;;;;;;;;;;4979129;28;20387;-87
2021/03/29 03:53:45;;;;;;;30.25;7.82;;;;;;;;;;4980141;28;20026;-83
2021/03/29 03:56:12;;;;;;;26.60;8.90;;;;;;;;;;4979733;28;20037;-85
2021/03/29 03:58:39;;;;;;;21.13;8.25;;;;;;;;;;4979912;28;20023;-84
2021/03/29 04:01:08;;;;;;;21.85;7.03;;;;;;;;;;4978898;28;20038;-83
2021/03/29 04:03:34;;;;;;;27.00;8.23;;;;;;;;;;4979049;28;20033;-86
2021/03/29 04:06:01;;;;;;;24.77;7.82;;;;;;;;;;4997331;28;20035;-89
2021/03/29 04:08:27;;;;;;;19.10;7.28;;;;;;;;;;4979335;28;20029;-89
2021/03/29 04:10:55;;;;;;;21.92;7.50;;;;;;;;;;4977970;28;20480;-83
2021/03/29 04:13:29;;;;;;;14.35;6.18;;;;;;;;;;4996464;28;20023;-85
2021/03/29 04:15:58;;;;;;;;;;;;;;;;;;4978735;28;20034;-83
2021/03/29 04:18:25;;;;;;;11.88;4.28;;;;;;;;;;4978890;28;19906;-85
2021/03/29 04:20:55;;;;;;;10.65;4.40;;;;;;;;;;4978224;28;20049;-84
2021/03/29 04:23:25;;;;;;;9.55;3.95;;;;;;;;;;4995850;28;20018;-84
2021/03/29 04:25:55;;;;;;;11.23;4.28;;;;;;;;;;4977969;28;20053;-89
2021/03/29 04:28:21;;;;;;;13.13;4.15;;;;;;;;;;4978831;28;20436;-84
2021/03/29 04:30:50;;;;;;;12.13;4.97;;;;;;;;;;4995782;28;20039;-85
2021/03/29 04:33:19;;;;;;;12.07;3.90;;;;;;;;;;4977828;28;20023;-84
2021/03/29 04:35:48;;;;;;;14.80;4.38;;;;;;;;;;4978074;28;20022;-84
2021/03/29 04:38:15;;;;;;;8.60;3.42;;;;;;;;;;4979187;28;20030;-84
2021/03/29 04:40:44;;;;;;;9.23;4.22;;;;;;;;;;4977725;28;20484;-82
2021/03/29 04:43:11;;;;;;;11.02;3.83;;;;;;;;;;4977498;28;20026;-83
2021/03/29 04:45:37;;;;;;;11.00;3.80;;;;;;;;;;4994839;28;20027;-83
2021/03/29 04:48:04;;;;;;;12.55;3.88;;;;;;;;;;4994928;28;20026;-83
2021/03/29 04:50:30;;;;;;;10.07;4.32;;;;;;;;;;4977317;28;20179;-84
2021/03/29 04:53:00;;;;;;;15.23;5.93;;;;;;;;;;4977569;28;20061;-83
2021/03/29 04:55:26;;;;;;;13.23;4.47;;;;;;;;;;4977318;28;20381;-85
2021/03/29 04:57:52;;;;;;;16.02;5.07;;;;;;;;;;4977328;28;20482;-83
2021/03/29 05:00:19;;;;;;;15.65;4.68;;;;;;;;;;4977103;28;20038;-82
2021/03/29 05:02:45;;;;;;;21.67;6.25;;;;;;;;;;4977616;28;20116;-87
2021/03/29 05:05:11;;;;;;;22.08;6.65;;;;;;;;;;4977144;28;20134;-81
2021/03/29 05:07:37;;;;;;;9.05;4.28;;;;;;;;;;4977167;28;20487;-83
2021/03/29 05:10:08;;;;;;;13.05;5.10;;;;;;;;;;4977272;28;20049;-83
2021/03/29 05:12:34;;;;;;;16.02;5.38;;;;;;;;;;4977660;28;20525;-91
2021/03/29 05:15:01;;;;;;;12.35;5.40;;;;;;;;;;4977449;28;20061;-83
2021/03/29 05:17:29;;;;;;;20.35;7.00;;;;;;;;;;4993081;28;20102;-91
2021/03/29 05:19:56;;;;;;;13.30;5.30;;;;;;;;;;4978201;28;20113;-81
2021/03/29 05:22:22;;;;;;;21.17;6.40;;;;;;;;;;4977455;28;20400;-82
2021/03/29 05:24:48;;;;;;;14.52;5.30;;;;;;;;;;4996342;28;20026;-82
2021/03/29 05:27:14;;;;;;;18.10;6.22;;;;;;;;;;4996802;28;20391;-81
2021/03/29 05:29:43;;;;;;;15.43;6.32;;;;;;;;;;4996452;28;20505;-82
2021/03/29 05:32:13;;;;;;;17.95;6.72;;;;;;;;;;4996006;28;20034;-82
2021/03/29 05:34:40;;;;;;;16.17;6.07;;;;;;;;;;4995582;28;20066;-81
2021/03/29 05:37:06;;;;;;;12.50;5.80;;;;;;;;;;4979325;28;20030;-81
2021/03/29 05:39:32;;;;;;;18.48;5.55;;;;;;;;;;4979326;28;20026;-81
2021/03/29 05:41:58;;;;;;;11.60;4.88;;;;;;;;;;4976901;28;20061;-82
2021/03/29 05:44:25;;;;;;;13.35;5.10;;;;;;;;;;4976837;28;20076;-82
2021/03/29 05:46:51;;;;;;;10.70;4.88;;;;;;;;;;4976414;28;20076;-81
2021/03/29 05:49:18;;;;;;;9.60;4.00;;;;;;;;;;4976647;28;20471;-83
2021/03/29 05:51:44;;;;;;;11.15;4.78;;;;;;;;;;4976668;28;20026;-84
2021/03/29 05:54:10;;;;;;;13.55;4.72;;;;;;;;;;4972172;28;20141;-84
2021/03/29 05:56:39;;;;;;;12.55;4.60;;;;;;;;;;4957443;28;20113;-82
2021/03/29 06:01:43;;;;;;;12.00;4.10;;;;;;;;;;4974313;28;20039;-82
2021/03/29 06:04:10;;;;;;;11.73;4.05;;;;;;;;;;4956996;28;20264;-83
2021/03/29 06:06:36;;;;;;;11.23;3.85;;;;;;;;;;4956944;28;20034;-84
2021/03/29 06:09:03;;;;;;;11.18;4.20;;;;;;;;;;4957028;28;20558;-82
2021/03/29 06:11:33;;;;;;;8.90;3.80;;;;;;;;;;4961771;28;20149;-81
2021/03/29 06:14:06;;;;;;;8.20;4.20;;;;;;;;;;4976341;28;20084;-82
2021/03/29 06:16:32;;;;;;;7.93;3.80;;;;;;;;;;4993794;28;20098;-83
2021/03/29 06:18:58;;;;;;;12.45;5.05;;;;;;;;;;4976636;28;20033;-82
2021/03/29 06:21:25;;;;;;;12.95;4.50;;;;;;;;;;4976263;28;20048;-82
2021/03/29 06:23:58;;;;;;;11.90;4.85;;;;;;;;;;4976647;28;20022;-83
2021/03/29 06:26:24;;;;;;;10.93;4.60;;;;;;;;;;4962123;28;20387;-88
2021/03/29 06:28:51;;;;;;;12.52;5.60;;;;;;;;;;4957142;28;20057;-84
2021/03/29 06:31:18;;;;;;;9.10;4.55;;;;;;;;;;4957603;28;20040;-82
2021/03/29 06:33:48;;;;;;;13.95;4.93;;;;;;;;;;4972278;28;20027;-89
2021/03/29 06:36:33;;;;;;;8.90;4.47;;;;;;;;;;4960692;28;20506;-90
2021/03/29 06:39:13;;;;;;;9.82;4.80;;;;;;;;;;4960663;28;20027;-81
2021/03/29 06:41:40;;;;;;;12.00;4.70;;;;;;;;;;4960173;28;20484;-82
2021/03/29 06:44:07;;;;;;;12.48;4.70;;;;;;;;;;4977983;28;20026;-85
2021/03/29 06:46:33;;;;;;;9.85;4.47;;;;;;;;;;4960587;28;20487;-82
2021/03/29 06:49:00;;;;;;;16.20;5.50;;;;;;;;;;4978357;28;20023;-82
2021/03/29 06:51:30;;;;;;;10.63;5.82;;;;;;;;;;4977885;28;20464;-84
2021/03/29 06:54:05;;;;;;;13.70;4.40;;;;;;;;;;4960203;28;20492;-84
2021/03/29 06:56:33;;;;;;;14.32;5.32;;;;;;;;;;4960922;28;20033;-84
2021/03/29 06:59:08;;;;;;;21.90;5.68;;;;;;;;;;4961130;28;20054;-88
2021/03/29 07:01:36;;;;;;;11.15;5.45;;;;;;;;;;4960738;28;20392;-87
2021/03/29 07:04:05;;;;;;;16.52;5.32;;;;;;;;;;4960202;28;20031;-85
2021/03/29 07:06:34;;;;;;;14.40;5.72;;;;;;;;;;4961660;28;20023;-89
2021/03/29 07:11:29;;;;;;;19.25;5.53;;;;;;;;;;4977599;28;20037;-89
2021/03/29 07:13:59;;;;;;;11.10;4.82;;;;;;;;;;4959812;28;20038;-87
2021/03/29 07:16:26;;;;;;;13.80;5.60;;;;;;;;;;4959977;28;20069;-85
2021/03/29 07:18:55;;;;;;;11.98;5.55;;;;;;;;;;4960042;28;20019;-87
2021/03/29 07:21:27;;;;;;;12.27;5.68;;;;;;;;;;4959754;28;20504;-92
2021/03/29 07:23:54;;;;;;;10.45;5.03;;;;;;;;;;4960685;28;20492;-90
2021/03/29 07:26:23;;;;;;;14.55;5.60;;;;;;;;;;4977709;28;20086;-91
2021/03/29 07:28:49;;;;;;;12.30;5.07;;;;;;;;;;4963541;28;20026;-84
2021/03/29 07:31:36;;;;;;;9.95;5.47;;;;;;;;;;4979789;28;20023;-84
2021/03/29 07:34:02;;;;;;;10.38;5.70;;;;;;;;;;4979710;28;20034;-87
2021/03/29 07:36:40;;;;;;;14.48;5.75;;;;;;;;;;4979887;28;20033;-84
2021/03/29 07:39:10;;;;;;;9.95;5.10;;;;;;;;;;4979363;28;20448;-87
2021/03/29 07:41:37;;;;;;;12.48;5.68;;;;;;;;;;4978785;28;20495;-88
2021/03/29 07:44:12;;;;;;;15.63;6.07;;;;;;;;;;4978875;28;20467;-88
2021/03/29 07:46:40;;;;;;;13.23;6.03;;;;;;;;;;4979165;28;20138;-90
2021/03/29 07:49:26;;;;;;;10.27;5.60;;;;;;;;;;4996613;28;20018;-89
2021/03/29 07:52:11;;;;;;;22.38;10.05;;;;;;;;;;4978515;28;20387;-91
2021/03/29 07:54:50;;;;;;;12.75;6.78;;;;;;;;;;4986671;28;20106;-88
2021/03/29 07:57:36;;;;;;;12.15;6.38;;;;;;;;;;4998137;28;20029;-88
2021/03/29 08:00:02;;;;;;;12.45;5.45;;;;;;;;;;4997140;28;20030;-84
2021/03/29 08:02:33;;;;;;;10.00;5.25;;;;;;;;;;4998130;28;20038;-84
2021/03/29 08:05:04;;;;;;;12.15;5.55;;;;;;;;;;4999179;28;20125;-88
2021/03/29 08:07:58;;;;;;;7.88;5.03;;;;;;;;;;5015797;28;20034;-85
2021/03/29 08:10:44;;;;;;;10.30;5.10;;;;;;;;;;4996213;28;20395;-85
2021/03/29 08:13:10;;;;;;;15.82;5.55;;;;;;;;;;4998191;28;20053;-88
2021/03/29 08:15:55;;;;;;;11.52;5.55;;;;;;;;;;4997935;28;20038;-90
2021/03/29 08:18:24;;;;;;;11.48;6.18;;;;;;;;;;4998166;28;20056;-89
2021/03/29 08:20:53;;;;;;;17.30;6.35;;;;;;;;;;4997792;28;20042;-90
2021/03/29 08:23:37;;;;;;;9.05;5.35;;;;;;;;;;4998511;28;20034;-84
2021/03/29 08:26:10;;;;;;;14.18;5.88;;;;;;;;;;4997277;28;20045;-86
2021/03/29 08:28:55;;;;;;;12.68;6.22;;;;;;;;;;5013213;28;20068;-84
2021/03/29 08:31:39;;;;;;;9.02;5.35;;;;;;;;;;4977643;28;20121;-84
2021/03/29 08:34:06;;;;;;;21.40;5.88;;;;;;;;;;4977334;28;20465;-83
2021/03/29 08:36:35;;;;;;;17.75;6.25;;;;;;;;;;4977596;28;20030;-83
2021/03/29 08:39:03;;;;;;;13.43;5.90;;;;;;;;;;4977778;28;20085;-84
2021/03/29 08:41:29;;;;;;;14.02;5.68;;;;;;;;;;4977382;28;20407;-84
2021/03/29 08:43:55;;;;;;;14.20;6.00;;;;;;;;;;4977292;28;20031;-83
2021/03/29 08:46:21;;;;;;;12.50;5.68;;;;;;;;;;4994740;28;20034;-86
2021/03/29 08:48:47;;;;;;;11.60;5.80;;;;;;;;;;4977064;28;20026;-83
2021/03/29 08:51:23;;;;;;;10.32;5.78;;;;;;;;;;4977320;28;20034;-83
2021/03/29 08:54:08;;;;;;;10.63;5.72;;;;;;;;;;4975719;28;20037;-84
2021/03/29 08:56:38;;;;;;;17.55;6.25;;;;;;;;;;4941830;28;20050;-84
2021/03/29 08:59:04;;;;;;;11.20;5.88;;;;;;;;;;4957860;28;20054;-85
2021/03/29 09:01:30;;;;;;;11.32;5.43;;;;;;;;;;4957950;28;20046;-85
2021/03/29 09:04:04;;;;;;;14.30;5.65;;;;;;;;;;4958070;28;20546;-84
2021/03/29 09:06:32;;;;;;;12.05;5.70;;;;;;;;;;4958498;28;20031;-84
2021/03/29 09:08:58;;;;;;;14.10;5.80;;;;;;;;;;4959684;28;20499;-82
2021/03/29 09:11:25;;;;;;;12.90;5.38;;;;;;;;;;4960407;28;20038;-82
2021/03/29 09:13:54;;;;;;;15.75;6.10;;;;;;;;;;4962570;28;20030;-85
2021/03/29 09:16:27;;;;;;;10.40;5.20;;;;;;;;;;4965711;28;20035;-80
2021/03/29 09:18:54;;;;;;;14.00;5.75;;;;;;;;;;4975625;28;20097;-83
2021/03/29 09:21:24;;;;;;;12.60;6.15;;;;;;;;;;4974957;28;20503;-86
2021/03/29 09:23:50;;;;;;;14.93;6.40;;;;;;;;;;4957263;28;20117;-85
2021/03/29 09:26:26;;;;;;;15.48;6.60;;;;;;;;;;4957459;28;20468;-85
2021/03/29 09:28:54;;;;;;;10.15;6.35;;;;;;;;;;4961191;28;20022;-88
2021/03/29 09:31:25;;;;;;;12.05;6.13;;;;;;;;;;4994199;28;20113;-84
2021/03/29 09:33:53;;;;;;;18.38;6.43;;;;;;;;;;4976734;28;20034;-84
2021/03/29 09:36:22;;;;;;;10.98;6.20;;;;;;;;;;4977228;28;20109;-82
2021/03/29 09:39:08;;;;;;;23.75;5.85;;;;;;;;;;4981148;28;20031;-83
2021/03/29 09:41:35;;;;;;;11.93;6.10;;;;;;;;;;4977777;28;20046;-83
2021/03/29 09:44:06;;;;;;;11.65;5.75;;;;;;;;;;4994489;28;20030;-84
2021/03/29 09:46:34;;;;;;;10.50;5.85;;;;;;;;;;4977021;28;20031;-83
2021/03/29 09:49:29;;;;;;;10.90;5.43;;;;;;;;;;4977375;28;20022;-86
2021/03/29 09:52:08;;;;;;;12.52;4.90;;;;;;;;;;4965684;28;20173;-84
2021/03/29 09:54:37;;;;;;;11.73;4.60;;;;;;;;;;4983890;28;20141;-84
2021/03/29 09:57:14;;;;;;;10.07;4.53;;;;;;;;;;4995836;28;20037;-83
2021/03/29 09:59:42;;;;;;;12.50;4.60;;;;;;;;;;4995880;28;20083;-88
2021/03/29 10:02:13;;;;;;;9.55;5.32;;;;;;;;;;4996432;28;20038;-85
2021/03/29 10:04:40;;;;;;;8.85;4.63;;;;;;;;;;4996088;28;20164;-85
2021/03/29 10:07:11;;;;;;;7.88;4.40;;;;;;;;;;5013577;28;20100;-84
2021/03/29 10:09:38;;;;;;;10.15;4.55;;;;;;;;;;5000037;28;20116;-83
2021/03/29 10:12:05;;;;;;;9.25;4.47;;;;;;;;;;5017341;28;20029;-84
2021/03/29 10:14:35;;;;;;;10.18;4.38;;;;;;;;;;4999849;28;20171;-84
2021/03/29 10:17:01;;;;;;;7.53;3.58;;;;;;;;;;5017281;28;20030;-85
2021/03/29 10:19:34;;;;;;;7.70;3.40;;;;;;;;;;4999811;28;20025;-84
2021/03/29 10:22:09;;;;;;;9.77;3.45;;;;;;;;;;5017433;28;20042;-88
2021/03/29 10:24:36;;;;;;;9.68;2.90;;;;;;;;;;4999758;28;20062;-85
2021/03/29 10:27:08;;;;;;;5.05;2.95;;;;;;;;;;4999645;28;20060;-86
2021/03/29 10:29:39;;;;;;;5.07;2.72;;;;;;;;;;4989880;28;20065;-85
2021/03/29 10:32:10;;;;;;;12.32;3.80;;;;;;;;;;4980067;28;20030;-89
2021/03/29 10:34:38;;;;;;;6.88;2.72;;;;;;;;;;4980036;28;20023;-84
2021/03/29 10:37:05;;;;;;;12.50;4.28;;;;;;;;;;4980425;28;20480;-85
2021/03/29 10:39:31;;;;;;;7.30;3.20;;;;;;;;;;4979845;28;20030;-86
2021/03/29 10:41:58;;;;;;;6.03;2.47;;;;;;;;;;4979510;28;20046;-84
2021/03/29 10:44:24;;;;;;;5.05;2.55;;;;;;;;;;4979637;28;20042;-84
2021/03/29 10:46:50;;;;;;;14.65;2.97;;;;;;;;;;4979774;28;20056;-85
2021/03/29 10:49:16;;;;;;;6.75;3.22;;;;;;;;;;4979858;28;20023;-83
2021/03/29 10:51:43;;;;;;;9.13;3.10;;;;;;;;;;4979475;28;20058;-82
2021/03/29 10:54:09;;;;;;;7.78;3.15;;;;;;;;;;4979718;28;20053;-84
2021/03/29 10:56:35;;;;;;;7.10;2.75;;;;;;;;;;4997038;28;20022;-84
2021/03/29 10:59:01;;;;;;;6.38;2.88;;;;;;;;;;4979411;28;20380;-86
2021/03/29 11:01:28;;;;;;;6.72;3.10;;;;;;;;;;4979598;28;20049;-84
2021/03/29 11:03:54;;;;;;;7.22;2.90;;;;;;;;;;4979632;28;20424;-85
2021/03/29 11:06:20;;;;;;;4.45;2.15;;;;;;;;;;4979465;28;20208;-84
2021/03/29 11:08:46;;;;;;;8.43;2.72;;;;;;;;;;4979510;28;20495;-85
2021/03/29 11:11:12;;;;;;;7.97;2.17;;;;;;;;;;4979447;28;20038;-87
2021/03/29 11:13:38;;;;;;;8.70;2.63;;;;;;;;;;4996647;28;20027;-84
2021/03/29 11:16:09;;;;;;;8.75;2.97;;;;;;;;;;4979158;28;20376;-83
2021/03/29 11:18:35;;;;;;;6.88;2.63;;;;;;;;;;4979611;28;20096;-83
2021/03/29 11:21:01;;;;;;;5.72;2.55;;;;;;;;;;4979186;28;20044;-85
2021/03/29 11:23:27;;;;;;;6.97;2.60;;;;;;;;;;4979012;28;20395;-84
2021/03/29 11:25:54;;;;;;;5.13;2.10;;;;;;;;;;4996319;28;20037;-84
2021/03/29 11:28:20;;;;;;;7.10;2.05;;;;;;;;;;4996755;28;20027;-86
2021/03/29 11:30:47;;;;;;;8.05;2.33;;;;;;;;;;4998066;28;20466;-83
2021/03/29 11:33:13;;;;;;;6.25;2.20;;;;;;;;;;4998512;28;20029;-84
2021/03/29 11:35:39;;;;;;;5.63;2.33;;;;;;;;;;4998371;28;20030;-83
2021/03/29 11:38:05;;;;;;;5.82;1.30;;;;;;;;;;4998398;28;20072;-83
2021/03/29 11:40:31;;;;;;;5.15;1.50;;;;;;;;;;4998188;28;20037;-84
2021/03/29 11:42:57;;;;;;;5.05;1.10;;;;;;;;;;5015699;28;20025;-84
2021/03/29 11:45:23;;;;;;;4.47;1.35;;;;;;;;;;4998302;28;20041;-82
2021/03/29 11:47:50;;;;;;;2.95;1.17;;;;;;;;;;4997965;28;20061;-85
2021/03/29 11:50:16;;;;;;;3.28;1.15;;;;;;;;;;4998028;28;20116;-84
2021/03/29 11:52:43;;;;;;;10.68;1.73;;;;;;;;;;4998403;28;20057;-83
2021/03/29 11:55:09;;;;;;;4.85;1.40;;;;;;;;;;5003978;28;20092;-84
2021/03/29 11:57:35;;;;;;;4.05;1.27;;;;;;;;;;4978747;28;20120;-85
2021/03/29 12:00:05;;;;;;;3.40;1.20;;;;;;;;;;4978451;28;20030;-84
2021/03/29 12:02:38;;;;;;;2.88;1.10;;;;;;;;;;4979934;28;20042;-85
2021/03/29 12:05:18;;;;;;;6.22;1.58;;;;;;;;;;4993736;28;20380;-84
2021/03/29 12:08:01;;;;;;;7.45;1.48;;;;;;;;;;4984042;28;20033;-85
2021/03/29 12:13:12;;;;;;;5.53;1.42;;;;;;;;;;4996120;28;20088;-85
2021/03/29 12:15:40;;;;;;;9.88;1.55;;;;;;;;;;4978089;28;20223;-84
2021/03/29 12:18:06;;;;;;;6.68;1.63;;;;;;;;;;4995679;28;20018;-84
2021/03/29 12:20:32;;;;;;;2.65;1.27;;;;;;;;;;4995560;28;20492;-85
2021/03/29 12:23:00;;;;;;;6.45;1.55;;;;;;;;;;4996067;28;20454;-85
2021/03/29 12:25:26;;;;;;;5.90;1.40;;;;;;;;;;4995496;28;20062;-84
2021/03/29 12:27:52;;;;;;;4.70;1.50;;;;;;;;;;4977611;28;20057;-85
2021/03/29 12:30:19;;;;;;;4.00;1.48;;;;;;;;;;4961912;28;20034;-85
2021/03/29 12:32:47;;;;;;;4.35;1.23;;;;;;;;;;4958081;28;20019;-87
2021/03/29 12:35:17;;;;;;;4.32;1.55;;;;;;;;;;4958483;28;20043;-85
2021/03/29 12:37:44;;;;;;;6.93;1.52;;;;;;;;;;4957881;28;20034;-87
2021/03/29 12:40:14;;;;;;;6.28;1.55;;;;;;;;;;4958207;28;20058;-85
2021/03/29 12:43:04;;;;;;;14.40;2.20;;;;;;;;;;4958030;28;20345;-86
2021/03/29 12:45:31;;;;;;;7.38;1.65;;;;;;;;;;4958039;28;20046;-86
2021/03/29 12:47:59;;;;;;;6.05;1.95;;;;;;;;;;4975190;28;20030;-85
2021/03/29 12:50:25;;;;;;;6.57;1.27;;;;;;;;;;4957710;28;20058;-87
2021/03/29 12:52:51;;;;;;;4.75;1.40;;;;;;;;;;4958338;28;20027;-85
2021/03/29 12:55:19;;;;;;;3.20;1.50;;;;;;;;;;4970715;28;20054;-85
2021/03/29 12:57:47;;;;;;;6.25;2.70;;;;;;;;;;4977338;28;20467;-84
2021/03/29 13:00:15;;;;;;;6.90;2.13;;;;;;;;;;4977345;28;20034;-85
2021/03/29 13:02:45;;;;;;;7.55;1.65;;;;;;;;;;4977503;28;20037;-86
2021/03/29 13:05:17;;;;;;;3.40;1.48;;;;;;;;;;4994456;28;20026;-87
2021/03/29 13:07:49;;;;;;;7.32;1.90;;;;;;;;;;4977613;28;20030;-84
2021/03/29 13:13:04;;;;;;;6.45;2.50;;;;;;;;;;4954328;28;20038;-89
2021/03/29 13:15:30;;;;;;;3.97;1.60;;;;;;;;;;4976976;28;20027;-84
2021/03/29 13:17:58;;;;;;;5.20;1.50;;;;;;;;;;4977321;28;20398;-90
2021/03/29 13:20:26;;;;;;;3.50;1.30;;;;;;;;;;4977419;28;20061;-85
2021/03/29 13:22:53;;;;;;;7.50;1.52;;;;;;;;;;4977528;28;20037;-84
2021/03/29 13:25:21;;;;;;;3.33;1.42;;;;;;;;;;4977473;28;20026;-84
2021/03/29 13:27:47;;;;;;;3.38;1.40;;;;;;;;;;4977013;28;20033;-84
2021/03/29 13:30:14;;;;;;;3.08;1.05;;;;;;;;;;4991464;28;20360;-86
2021/03/29 13:32:41;;;;;;;6.72;1.60;;;;;;;;;;4996971;28;20168;-85
2021/03/29 13:35:07;;;;;;;5.65;1.30;;;;;;;;;;4996769;28;20033;-85
2021/03/29 13:37:34;;;;;;;4.53;1.40;;;;;;;;;;4996085;28;20030;-84
2021/03/29 13:40:00;;;;;;;3.60;1.52;;;;;;;;;;4996509;28;20132;-84
2021/03/29 13:42:29;;;;;;;4.35;1.27;;;;;;;;;;5013780;28;20042;-87
2021/03/29 13:44:55;;;;;;;9.48;1.83;;;;;;;;;;5013544;28;20032;-85
2021/03/29 13:47:23;;;;;;;3.63;1.00;;;;;;;;;;5013842;28;20026;-85
2021/03/29 13:49:49;;;;;;;5.00;1.38;;;;;;;;;;4987671;28;20460;-86
2021/03/29 13:52:16;;;;;;;12.48;1.17;;;;;;;;;;4976553;28;20023;-86
2021/03/29 13:54:43;;;;;;;6.15;1.40;;;;;;;;;;4976253;28;20459;-85
2021/03/29 13:57:09;;;;;;;5.70;1.08;;;;;;;;;;4976731;28;20109;-84
2021/03/29 13:59:36;;;;;;;4.55;1.10;;;;;;;;;;4994972;28;20027;-84
2021/03/29 14:02:06;;;;;;;5.10;1.30;;;;;;;;;;4976585;28;20538;-85
2021/03/29 14:04:33;;;;;;;4.88;1.63;;;;;;;;;;4977357;28;20027;-86
2021/03/29 14:07:00;;;;;;;18.65;1.55;;;;;;;;;;4994588;28;20065;-86
2021/03/29 14:09:28;;;;;;;9.30;1.38;;;;;;;;;;4977196;28;20476;-86
2021/03/29 14:11:55;;;;;;;4.18;1.10;;;;;;;;;;4976844;28;20029;-86
2021/03/29 14:14:22;;;;;;;7.18;1.40;;;;;;;;;;4977529;28;20394;-87
2021/03/29 14:16:50;;;;;;;12.73;1.75;;;;;;;;;;4976702;28;20030;-85
2021/03/29 14:19:18;;;;;;;3.47;1.42;;;;;;;;;;4994913;28;20368;-85
2021/03/29 14:21:45;;;;;;;6.90;1.90;;;;;;;;;;4976680;28;20427;-86
2021/03/29 14:24:12;;;;;;;11.57;1.40;;;;;;;;;;4976830;28;20038;-84
2021/03/29 14:26:39;;;;;;;8.05;1.40;;;;;;;;;;4976305;28;20117;-84
2021/03/29 14:29:05;;;;;;;8.82;1.55;;;;;;;;;;4993638;28;20030;-86
2021/03/29 14:31:32;;;;;;;6.43;1.33;;;;;;;;;;4993919;28;20034;-85
2021/03/29 14:33:59;;;;;;;6.38;1.77;;;;;;;;;;4976575;28;20026;-84
2021/03/29 14:41:48;;;;;;;5.30;1.35;;;;;;;;;;4994629;28;20053;-85
2021/03/29 14:44:27;;;;;;;2.05;0.85;;;;;;;;;;4989495;28;20077;-90
2021/03/29 14:46:55;;;;;;;5.32;1.02;;;;;;;;;;4977168;28;20030;-86
2021/03/29 14:49:21;;;;;;;9.77;1.40;;;;;;;;;;4976301;28;20027;-88
2021/03/29 14:51:48;;;;;;;5.18;1.38;;;;;;;;;;4976422;28;20125;-87
2021/03/29 14:54:14;;;;;;;2.97;1.30;;;;;;;;;;4990513;28;20037;-84
2021/03/29 14:56:41;;;;;;;6.90;1.48;;;;;;;;;;4958354;28;20031;-84
2021/03/29 14:59:08;;;;;;;3.35;1.15;;;;;;;;;;4960103;28;20403;-85
2021/03/29 15:01:35;;;;;;;4.22;1.15;;;;;;;;;;4959690;28;20097;-84
2021/03/29 15:04:03;;;;;;;9.32;2.95;;;;;;;;;;4959803;28;20034;-87